Time;durP1;ratioP1;P1;durP2;ratioP2;P2;SDS_P1;SDS_P2;PMS_P1;PMS_P2;Temp;Humidity;BMP_temperature;BMP_pressure;BME280_temperature;BME280_humidity;BME280_pressure;Samples;Min_cycle;Max_cycle;Signal;HPM_P1;HPM_P2
2022/07/12 00:00:15;;;;;;;3.00;2.80;;;16.90;99.90;;;;;;5057321;28;20352;-83
2022/07/12 00:02:42;;;;;;;3.15;2.95;;;16.90;99.90;;;;;;5057111;28;20213;-85
2022/07/12 00:05:09;;;;;;;3.00;2.80;;;16.90;99.90;;;;;;5057990;28;20198;-83
2022/07/12 00:07:38;;;;;;;4.22;3.85;;;16.80;99.90;;;;;;5056369;28;20197;-85
2022/07/12 00:10:05;;;;;;;2.90;2.70;;;16.80;99.90;;;;;;5056789;28;20273;-84
2022/07/12 00:12:32;;;;;;;3.30;3.00;;;16.70;99.90;;;;;;5048778;28;20285;-84
2022/07/12 00:14:59;;;;;;;3.22;3.03;;;16.70;99.90;;;;;;5034486;28;20694;-84
2022/07/12 00:17:26;;;;;;;3.42;3.13;;;16.70;99.90;;;;;;5035734;28;20289;-83
2022/07/12 00:19:53;;;;;;;3.58;3.22;;;16.70;99.90;;;;;;5053781;28;20612;-83
2022/07/12 00:22:19;;;;;;;3.72;3.42;;;16.60;99.90;;;;;;5053888;28;20201;-82
2022/07/12 00:24:48;;;;;;;3.80;3.50;;;16.60;99.90;;;;;;5053015;28;20761;-84
2022/07/12 00:27:14;;;;;;;3.15;2.90;;;16.60;99.90;;;;;;5053327;28;20586;-82
2022/07/12 00:29:41;;;;;;;3.17;2.92;;;16.50;99.90;;;;;;5053494;28;20198;-84
2022/07/12 00:32:08;;;;;;;3.28;2.88;;;16.50;99.90;;;;;;5053692;28;20204;-83
2022/07/12 00:34:35;;;;;;;3.35;3.08;;;16.50;99.90;;;;;;5053247;28;20205;-85
2022/07/12 00:37:02;;;;;;;3.67;3.38;;;16.50;99.90;;;;;;5053930;28;20190;-84
2022/07/12 00:39:29;;;;;;;4.15;3.75;;;16.50;99.90;;;;;;5053855;28;20212;-85
2022/07/12 00:41:57;;;;;;;3.60;3.30;;;16.40;99.90;;;;;;5053224;28;20228;-82
2022/07/12 00:44:26;;;;;;;4.38;3.92;;;16.40;99.90;;;;;;5054301;28;20576;-84
2022/07/12 00:46:53;;;;;;;3.67;3.40;;;16.40;99.90;;;;;;5052712;28;20509;-84
2022/07/12 00:49:20;;;;;;;3.47;3.13;;;16.30;99.90;;;;;;5053232;28;20258;-85
2022/07/12 00:51:47;;;;;;;4.07;3.60;;;16.30;99.90;;;;;;5053631;28;20194;-85
2022/07/12 00:54:16;;;;;;;2.88;2.67;;;16.20;99.90;;;;;;5052787;28;20209;-84
2022/07/12 00:56:43;;;;;;;3.72;3.47;;;16.20;99.90;;;;;;5053252;28;20273;-83
2022/07/12 00:59:12;;;;;;;4.35;3.95;;;16.20;99.90;;;;;;5053847;28;20280;-84
2022/07/12 01:01:39;;;;;;;4.40;4.03;;;16.20;99.90;;;;;;5037277;28;20230;-83
2022/07/12 01:04:06;;;;;;;3.90;3.60;;;16.10;99.90;;;;;;5043517;28;20209;-83
2022/07/12 01:06:34;;;;;;;4.65;4.00;;;16.20;99.90;;;;;;5053155;28;20190;-84
2022/07/12 01:09:01;;;;;;;5.28;4.55;;;16.20;99.90;;;;;;5053338;28;20628;-85
2022/07/12 01:11:28;;;;;;;4.80;4.25;;;16.20;99.90;;;;;;5053025;28;20200;-82
2022/07/12 01:13:57;;;;;;;4.40;4.10;;;16.20;99.90;;;;;;5052620;28;20209;-84
2022/07/12 01:16:26;;;;;;;5.65;5.03;;;16.30;99.90;;;;;;5052724;28;20206;-85
2022/07/12 01:18:54;;;;;;;5.70;5.20;;;16.30;99.90;;;;;;5052739;28;20220;-84
2022/07/12 01:21:23;;;;;;;4.82;4.43;;;16.40;99.90;;;;;;5053532;28;20229;-83
2022/07/12 01:23:52;;;;;;;4.90;4.50;;;16.40;99.90;;;;;;5052695;28;20201;-83
2022/07/12 01:26:19;;;;;;;5.13;4.47;;;16.40;99.90;;;;;;5053298;28;20201;-84
2022/07/12 01:28:47;;;;;;;4.20;3.72;;;16.40;99.90;;;;;;5033849;28;20221;-84
2022/07/12 01:31:14;;;;;;;4.30;3.90;;;16.40;99.90;;;;;;5043632;28;20198;-84
2022/07/12 01:33:41;;;;;;;3.55;3.25;;;16.40;99.90;;;;;;5052213;28;20297;-85
2022/07/12 01:36:09;;;;;;;3.83;2.67;;;16.40;99.90;;;;;;5053267;28;20255;-85
2022/07/12 01:38:36;;;;;;;4.30;3.35;;;16.40;99.90;;;;;;5053212;28;20225;-83
2022/07/12 01:41:05;;;;;;;4.47;4.07;;;16.30;99.90;;;;;;5053145;28;20304;-85
2022/07/12 01:43:32;;;;;;;4.30;3.90;;;16.30;99.90;;;;;;5051872;28;20307;-83
2022/07/12 01:45:59;;;;;;;3.65;3.35;;;16.20;99.90;;;;;;5053469;28;20208;-85
2022/07/12 01:48:26;;;;;;;3.70;3.40;;;16.20;99.90;;;;;;5053362;28;20230;-84
2022/07/12 01:50:53;;;;;;;3.28;2.97;;;16.10;99.90;;;;;;5052966;28;20205;-83
2022/07/12 01:53:21;;;;;;;3.88;3.38;;;16.10;99.90;;;;;;5052794;28;20284;-85
2022/07/12 01:55:48;;;;;;;3.63;3.33;;;16.00;99.90;;;;;;5053195;28;20208;-85
2022/07/12 01:58:17;;;;;;;6.05;5.45;;;16.00;99.90;;;;;;5053920;28;20288;-84
2022/07/12 02:00:50;;;;;;;4.13;3.83;;;16.00;99.90;;;;;;5055560;28;20242;-83
2022/07/12 02:03:17;;;;;;;4.20;3.90;;;16.00;99.90;;;;;;5037724;28;20555;-85
2022/07/12 02:05:44;;;;;;;3.92;3.53;;;15.90;99.90;;;;;;5036916;28;20191;-85
2022/07/12 02:08:12;;;;;;;4.20;3.80;;;15.90;99.90;;;;;;5037327;28;20194;-85
2022/07/12 02:10:39;;;;;;;3.58;3.28;;;15.90;99.90;;;;;;5036963;28;20195;-83
2022/07/12 02:13:06;;;;;;;3.95;3.55;;;15.80;99.90;;;;;;5036370;28;20641;-85
2022/07/12 02:15:35;;;;;;;3.63;3.33;;;15.80;99.90;;;;;;5036781;28;20583;-84
2022/07/12 02:18:02;;;;;;;3.63;3.33;;;15.80;99.90;;;;;;5037263;28;20598;-84
2022/07/12 02:20:29;;;;;;;3.70;3.40;;;15.80;99.90;;;;;;5049358;28;20206;-84
2022/07/12 02:22:55;;;;;;;3.05;2.75;;;15.70;99.90;;;;;;5056996;28;20194;-85
2022/07/12 02:25:22;;;;;;;4.25;3.30;;;15.70;99.90;;;;;;5056524;28;20197;-86
2022/07/12 02:27:49;;;;;;;3.97;3.60;;;15.60;99.90;;;;;;5055963;28;20613;-85
2022/07/12 02:30:16;;;;;;;3.70;2.97;;;15.60;99.90;;;;;;5056949;28;20197;-84
2022/07/12 02:32:45;;;;;;;3.72;3.42;;;15.60;99.90;;;;;;5055827;28;20202;-85
2022/07/12 02:35:12;;;;;;;3.28;2.97;;;15.60;99.90;;;;;;5056349;28;20208;-86
2022/07/12 02:37:39;;;;;;;3.90;3.60;;;15.60;99.90;;;;;;5056205;28;20206;-85
2022/07/12 02:42:51;;;;;;;3.35;3.05;;;15.50;99.90;;;;;;5056742;28;20213;-84
2022/07/12 02:45:18;;;;;;;3.67;3.38;;;15.50;99.90;;;;;;5055331;28;20204;-85
2022/07/12 02:47:46;;;;;;;4.05;3.65;;;15.50;99.90;;;;;;5035778;28;20234;-85
2022/07/12 02:50:13;;;;;;;3.92;3.63;;;15.40;99.90;;;;;;5036237;28;20590;-85
2022/07/12 02:52:40;;;;;;;3.90;3.60;;;15.40;99.90;;;;;;5036436;28;20591;-85
2022/07/12 02:55:07;;;;;;;4.18;3.78;;;15.40;99.90;;;;;;5035202;28;20233;-85
2022/07/12 02:57:34;;;;;;;4.53;4.13;;;15.40;99.90;;;;;;5036446;28;20465;-86
2022/07/12 03:00:01;;;;;;;3.53;3.22;;;15.40;99.90;;;;;;5045862;28;20228;-86
2022/07/12 03:02:28;;;;;;;4.53;3.47;;;15.30;99.90;;;;;;5055863;28;20252;-86
2022/07/12 03:04:56;;;;;;;4.07;3.67;;;15.30;99.90;;;;;;5055991;28;20201;-85
2022/07/12 03:07:23;;;;;;;4.15;3.80;;;15.30;99.90;;;;;;5056069;28;20197;-84
2022/07/12 03:09:50;;;;;;;4.13;3.80;;;15.30;99.90;;;;;;5054531;28;20208;-85
2022/07/12 03:12:17;;;;;;;3.03;2.83;;;15.30;99.90;;;;;;5055379;28;20205;-86
2022/07/12 03:14:43;;;;;;;4.45;4.10;;;15.20;99.90;;;;;;5055773;28;20281;-86
2022/07/12 03:17:11;;;;;;;4.28;3.88;;;15.30;99.90;;;;;;5055928;28;20194;-86
2022/07/12 03:19:37;;;;;;;3.63;3.33;;;15.30;99.90;;;;;;5055881;28;20271;-83
2022/07/12 03:22:06;;;;;;;3.50;3.20;;;15.20;99.90;;;;;;5055328;28;20222;-85
2022/07/12 03:24:33;;;;;;;2.90;2.70;;;15.20;99.90;;;;;;5055083;28;20204;-85
2022/07/12 03:27:00;;;;;;;3.33;3.03;;;15.20;99.90;;;;;;5055114;28;20220;-84
2022/07/12 03:29:26;;;;;;;3.05;2.85;;;15.20;99.90;;;;;;5056240;28;20276;-84
2022/07/12 03:31:54;;;;;;;3.40;3.03;;;15.20;99.90;;;;;;5056387;28;20206;-86
2022/07/12 03:34:20;;;;;;;3.25;2.95;;;15.20;99.90;;;;;;5055426;28;20287;-85
2022/07/12 03:36:47;;;;;;;3.75;3.45;;;15.20;99.90;;;;;;5053922;28;20609;-86
2022/07/12 03:39:16;;;;;;;3.55;3.25;;;15.20;99.90;;;;;;5054796;28;20782;-86
2022/07/12 03:41:43;;;;;;;3.35;3.05;;;15.20;99.90;;;;;;5038799;28;20225;-86
2022/07/12 03:44:10;;;;;;;3.20;3.00;;;15.20;99.90;;;;;;5035733;28;20222;-85
2022/07/12 03:46:37;;;;;;;3.72;3.35;;;15.30;99.90;;;;;;5055296;28;20636;-85
2022/07/12 03:49:03;;;;;;;3.63;3.33;;;15.20;99.90;;;;;;5055345;28;20228;-86
2022/07/12 03:51:30;;;;;;;3.60;3.30;;;15.30;99.90;;;;;;5055069;28;20280;-86
2022/07/12 03:53:57;;;;;;;3.50;3.20;;;15.30;99.90;;;;;;5045842;28;20224;-85
2022/07/12 03:59:10;;;;;;;3.58;3.28;;;15.30;99.90;;;;;;5049068;28;20212;-83
2022/07/12 04:01:37;;;;;;;3.97;3.67;;;15.40;99.90;;;;;;5053124;28;20226;-84
2022/07/12 04:04:04;;;;;;;4.40;3.67;;;15.40;99.90;;;;;;5034631;28;20205;-84
2022/07/12 04:06:31;;;;;;;3.83;3.53;;;15.40;99.90;;;;;;5034962;28;20195;-86
2022/07/12 04:08:58;;;;;;;3.97;3.65;;;15.50;99.90;;;;;;5034483;28;20187;-86
2022/07/12 04:11:27;;;;;;;3.72;3.42;;;15.50;99.90;;;;;;5042594;28;20202;-87
2022/07/12 04:13:54;;;;;;;3.63;3.33;;;15.60;99.90;;;;;;5055276;28;20190;-85
2022/07/12 04:16:21;;;;;;;3.90;3.60;;;15.60;99.90;;;;;;5055501;28;20206;-86
2022/07/12 04:18:48;;;;;;;4.00;3.70;;;15.70;99.90;;;;;;5055221;28;20213;-85
2022/07/12 04:21:14;;;;;;;4.30;3.83;;;15.70;99.90;;;;;;5054789;28;20218;-87
2022/07/12 04:23:41;;;;;;;4.07;3.77;;;15.70;99.90;;;;;;5053438;28;20204;-86
2022/07/12 04:26:08;;;;;;;4.70;4.30;;;15.80;99.90;;;;;;5053968;28;20212;-85
2022/07/12 04:28:37;;;;;;;6.45;5.75;;;15.90;99.90;;;;;;5054501;28;20201;-85
2022/07/12 04:31:04;;;;;;;6.10;5.55;;;15.90;99.90;;;;;;5053932;28;20209;-87
2022/07/12 04:33:31;;;;;;;5.60;5.13;;;16.00;99.90;;;;;;5054507;28;20209;-86
2022/07/12 04:35:58;;;;;;;6.60;5.80;;;16.10;99.90;;;;;;5054114;28;20849;-85
2022/07/12 04:38:25;;;;;;;6.07;5.57;;;16.20;99.90;;;;;;5054781;28;20190;-86
2022/07/12 04:40:52;;;;;;;6.60;5.68;;;16.20;99.90;;;;;;5053998;28;20460;-86
2022/07/12 04:43:18;;;;;;;7.80;7.00;;;16.30;99.90;;;;;;5054028;28;20229;-84
2022/07/12 04:45:47;;;;;;;7.20;6.50;;;16.30;99.90;;;;;;5054135;28;20225;-85
2022/07/12 04:48:14;;;;;;;6.68;6.07;;;16.30;99.90;;;;;;5044529;28;20336;-86
2022/07/12 04:50:41;;;;;;;9.18;8.27;;;16.40;99.90;;;;;;5034526;28;20202;-83
2022/07/12 04:53:07;;;;;;;11.23;10.13;;;16.40;99.90;;;;;;5034079;28;20200;-84
2022/07/12 04:55:34;;;;;;;9.60;8.50;;;16.50;99.90;;;;;;5033327;28;20205;-85
2022/07/12 04:58:01;;;;;;;11.60;10.55;;;16.60;99.90;;;;;;5034143;28;20218;-84
2022/07/12 05:00:28;;;;;;;10.82;9.85;;;16.60;99.90;;;;;;5041444;28;20197;-84
2022/07/12 05:02:57;;;;;;;10.93;9.90;;;16.70;99.90;;;;;;5053171;28;20225;-83
2022/07/12 05:05:24;;;;;;;12.30;11.07;;;16.70;99.90;;;;;;5053133;28;20220;-83
2022/07/12 05:07:50;;;;;;;11.93;10.68;;;16.70;99.90;;;;;;5053525;28;20198;-84
2022/07/12 05:10:17;;;;;;;12.75;10.98;;;16.80;99.90;;;;;;5034717;28;20515;-84
2022/07/12 05:12:44;;;;;;;12.00;10.82;;;16.80;99.90;;;;;;5037598;28;20191;-82
2022/07/12 05:15:11;;;;;;;12.93;11.77;;;16.90;99.90;;;;;;5046919;28;20225;-85
2022/07/12 05:17:38;;;;;;;10.75;9.75;;;17.00;99.90;;;;;;5055107;28;20281;-82
2022/07/12 05:20:07;;;;;;;11.57;10.45;;;17.00;99.90;;;;;;5055328;28;20206;-82
2022/07/12 05:22:34;;;;;;;12.88;11.52;;;17.10;99.90;;;;;;5057112;28;20226;-85
2022/07/12 05:25:01;;;;;;;13.02;11.73;;;17.20;99.90;;;;;;5060660;28;20685;-83
2022/07/12 05:27:28;;;;;;;12.13;10.85;;;17.30;99.90;;;;;;5054012;28;20218;-83
2022/07/12 05:29:55;;;;;;;12.45;11.35;;;17.30;99.90;;;;;;5051920;28;20212;-84
2022/07/12 05:32:23;;;;;;;13.25;12.13;;;17.40;99.90;;;;;;5052898;28;20193;-81
2022/07/12 05:34:50;;;;;;;12.10;10.80;;;17.50;99.90;;;;;;5054980;28;20593;-81
2022/07/12 05:37:18;;;;;;;12.63;10.88;;;17.60;99.90;;;;;;5055451;28;20581;-81
2022/07/12 05:39:45;;;;;;;11.50;10.50;;;17.80;99.90;;;;;;5054663;28;20213;-83
2022/07/12 05:42:12;;;;;;;11.48;10.48;;;18.10;99.90;;;;;;5056222;28;20270;-81
2022/07/12 05:44:39;;;;;;;11.20;10.20;;;18.30;99.90;;;;;;5046387;28;20302;-79
2022/07/12 05:47:06;;;;;;;11.30;10.25;;;18.60;99.90;;;;;;5035971;28;20202;-83
2022/07/12 05:49:33;;;;;;;10.65;9.70;;;18.80;99.90;;;;;;5036251;28;20850;-82
2022/07/12 05:54:45;;;;;;;8.85;8.15;;;19.20;99.90;;;;;;5056853;28;20181;-83
2022/07/12 05:57:12;;;;;;;8.70;7.90;;;19.30;99.90;;;;;;5056388;28;20198;-81
2022/07/12 05:59:39;;;;;;;9.00;8.25;;;19.40;99.90;;;;;;5055386;28;20217;-80
2022/07/12 06:02:07;;;;;;;10.07;9.07;;;19.40;99.90;;;;;;5055330;28;20237;-83
2022/07/12 06:04:33;;;;;;;9.10;8.30;;;19.40;99.90;;;;;;5055166;28;20214;-83
2022/07/12 06:07:00;;;;;;;9.15;8.35;;;19.40;99.90;;;;;;5054598;28;20201;-84
2022/07/12 06:09:27;;;;;;;9.10;7.93;;;19.40;99.90;;;;;;5055356;28;20202;-85
2022/07/12 06:11:55;;;;;;;9.23;8.43;;;19.40;99.90;;;;;;5036398;28;20202;-83
2022/07/12 06:14:22;;;;;;;7.05;6.35;;;19.40;99.90;;;;;;5039164;28;20208;-85
2022/07/12 06:16:49;;;;;;;8.82;8.13;;;19.40;99.90;;;;;;5056125;28;20186;-84
2022/07/12 06:19:16;;;;;;;7.55;6.40;;;19.40;99.90;;;;;;5054518;28;20288;-82
2022/07/12 06:21:43;;;;;;;6.57;5.85;;;19.60;99.90;;;;;;5055379;28;20285;-81
2022/07/12 06:24:10;;;;;;;6.90;6.30;;;19.70;99.90;;;;;;5055194;28;20208;-83
2022/07/12 06:26:37;;;;;;;7.18;6.45;;;19.80;99.90;;;;;;5054307;28;20204;-83
2022/07/12 06:29:05;;;;;;;8.68;7.85;;;19.90;99.90;;;;;;5055364;28;20201;-84
2022/07/12 06:31:32;;;;;;;8.50;7.68;;;20.00;99.90;;;;;;5055054;28;20288;-82
2022/07/12 06:33:58;;;;;;;6.63;6.03;;;20.00;99.90;;;;;;5053923;28;20216;-83
2022/07/12 06:36:26;;;;;;;7.80;6.90;;;20.20;99.90;;;;;;5055787;28;20204;-84
2022/07/12 06:38:52;;;;;;;8.27;7.47;;;20.40;99.90;;;;;;5055457;28;20198;-83
2022/07/12 06:41:19;;;;;;;6.68;5.40;;;20.50;99.90;;;;;;5052962;28;20205;-81
2022/07/12 06:43:46;;;;;;;8.02;7.22;;;20.80;99.90;;;;;;5055254;28;20236;-81
2022/07/12 06:46:15;;;;;;;6.95;6.40;;;21.20;99.90;;;;;;5049581;28;20213;-80
2022/07/12 06:48:42;;;;;;;6.80;6.13;;;21.70;99.90;;;;;;5041411;28;20247;-82
2022/07/12 06:51:08;;;;;;;6.85;6.25;;;22.20;99.90;;;;;;5051268;28;20218;-82
2022/07/12 06:53:35;;;;;;;6.68;5.65;;;22.60;99.90;;;;;;5047795;28;20289;-80
2022/07/12 06:56:02;;;;;;;5.97;4.85;;;22.90;99.90;;;;;;5045379;28;20214;-81
2022/07/12 06:58:29;;;;;;;6.05;5.55;;;22.90;99.90;;;;;;5034599;28;20207;-80
2022/07/12 07:00:56;;;;;;;5.03;4.63;;;22.90;99.90;;;;;;5039310;28;20212;-80
2022/07/12 07:03:24;;;;;;;6.88;5.88;;;23.00;99.90;;;;;;5041974;28;20221;-82
2022/07/12 07:05:52;;;;;;;5.78;5.25;;;23.30;99.90;;;;;;5045146;28;20714;-84
2022/07/12 07:08:19;;;;;;;8.55;4.95;;;23.30;99.90;;;;;;5054745;28;20616;-84
2022/07/12 07:10:45;;;;;;;7.22;4.57;;;23.50;99.90;;;;;;5052344;28;20202;-84
2022/07/12 07:13:12;;;;;;;5.05;4.50;;;23.70;99.90;;;;;;5054706;28;20194;-80
2022/07/12 07:15:40;;;;;;;4.57;3.83;;;23.90;99.90;;;;;;5052121;28;20202;-81
2022/07/12 07:18:07;;;;;;;3.67;3.25;;;24.30;99.90;;;;;;5053972;28;20205;-81
2022/07/12 07:20:36;;;;;;;3.97;3.58;;;24.50;99.90;;;;;;5055152;28;20206;-81
2022/07/12 07:23:02;;;;;;;3.95;3.38;;;24.70;99.90;;;;;;5053294;28;20219;-80
2022/07/12 07:25:30;;;;;;;3.17;2.65;;;24.80;99.90;;;;;;5053913;28;20288;-82
2022/07/12 07:27:56;;;;;;;3.90;1.85;;;25.10;99.90;;;;;;5054015;28;20198;-80
2022/07/12 07:33:08;;;;;;;3.20;2.00;;;25.70;67.70;;;;;;5052808;28;20786;-80
2022/07/12 07:35:37;;;;;;;2.85;2.65;;;26.00;35.20;;;;;;5053247;28;20230;-81
2022/07/12 07:38:04;;;;;;;4.40;2.47;;;26.30;29.60;;;;;;5049799;28;20260;-82
2022/07/12 07:40:30;;;;;;;3.90;2.08;;;26.50;19.20;;;;;;5053209;28;20197;-80
2022/07/12 07:42:57;;;;;;;2.17;1.98;;;26.80;1.60;;;;;;5052683;28;20236;-80
2022/07/12 07:45:24;;;;;;;2.22;1.60;;;27.00;1.00;;;;;;5052923;28;20228;-82
2022/07/12 07:47:51;;;;;;;2.17;1.98;;;27.00;1.00;;;;;;5052394;28;20240;-84
2022/07/12 07:50:19;;;;;;;2.65;2.00;;;27.10;1.00;;;;;;5051645;28;20256;-83
2022/07/12 07:52:49;;;;;;;2.30;1.50;;;27.20;1.00;;;;;;5033373;28;20195;-81
2022/07/12 07:55:17;;;;;;;1.73;1.45;;;27.50;1.00;;;;;;5043797;28;20220;-82
2022/07/12 07:57:43;;;;;;;3.45;1.50;;;27.80;1.00;;;;;;5052505;28;20202;-81
2022/07/12 08:00:12;;;;;;;1.40;1.30;;;28.00;1.00;;;;;;5046178;28;20568;-81
2022/07/12 08:02:39;;;;;;;2.03;1.40;;;28.20;1.00;;;;;;5042638;28;20551;-80
2022/07/12 08:05:06;;;;;;;2.03;1.60;;;28.50;1.00;;;;;;5045233;28;20372;-80
2022/07/12 08:07:33;;;;;;;2.30;1.20;;;28.80;1.00;;;;;;5041682;28;20512;-80
2022/07/12 08:10:01;;;;;;;2.15;1.30;;;29.00;1.00;;;;;;5047509;28;20224;-81
2022/07/12 08:12:28;;;;;;;1.58;1.15;;;29.40;1.00;;;;;;5046148;28;20617;-81
2022/07/12 08:14:55;;;;;;;1.90;1.40;;;29.70;99.90;;;;;;5053049;28;20209;-81
2022/07/12 08:17:22;;;;;;;1.55;1.45;;;29.70;99.90;;;;;;5053175;28;20493;-80
2022/07/12 08:19:49;;;;;;;2.15;1.40;;;30.00;1.00;;;;;;5052560;28;20596;-80
2022/07/12 08:22:16;;;;;;;2.63;1.73;;;30.10;1.00;;;;;;5051279;28;20198;-80
2022/07/12 08:24:42;;;;;;;5.03;1.77;;;30.30;1.00;;;;;;5043000;28;20289;-82
2022/07/12 08:27:11;;;;;;;2.38;2.00;;;30.50;1.00;;;;;;5046141;28;20202;-84
2022/07/12 08:29:38;;;;;;;2.20;2.00;;;30.70;1.00;;;;;;5037597;28;20210;-83
2022/07/12 08:32:07;;;;;;;3.35;1.98;;;30.60;99.90;;;;;;5032721;28;20293;-81
2022/07/12 08:34:34;;;;;;;3.65;2.60;;;30.80;1.00;;;;;;5033569;28;20206;-85
2022/07/12 08:37:01;;;;;;;3.45;1.70;;;30.70;99.90;;;;;;5046839;28;20209;-82
2022/07/12 08:39:28;;;;;;;2.50;2.03;;;31.00;99.90;;;;;;5051355;28;20624;-85
2022/07/12 08:41:55;;;;;;;2.60;2.40;;;31.30;1.00;;;;;;5052564;28;20202;-82
2022/07/12 08:44:23;;;;;;;3.47;2.20;;;31.20;67.00;;;;;;5051495;28;20583;-81
2022/07/12 08:46:52;;;;;;;4.90;2.20;;;30.90;99.90;;;;;;5050971;28;20208;-82
2022/07/12 08:49:19;;;;;;;2.95;2.03;;;30.90;1.00;;;;;;5039548;28;20324;-84
2022/07/12 08:51:48;;;;;;;2.83;2.45;;;30.80;99.90;;;;;;5031211;28;20199;-81
2022/07/12 08:54:15;;;;;;;3.17;2.45;;;30.80;1.00;;;;;;5044871;28;20271;-82
2022/07/12 08:56:44;;;;;;;3.85;3.15;;;30.50;1.00;;;;;;5051852;28;20194;-86
2022/07/12 08:59:15;;;;;;;4.40;2.80;;;30.30;99.90;;;;;;5052257;28;20196;-86
2022/07/12 09:01:45;;;;;;;4.05;3.25;;;29.40;99.90;;;;;;5051359;28;20213;-84
2022/07/12 09:04:16;;;;;;;3.42;3.13;;;29.10;99.90;;;;;;5049229;28;20220;-85
2022/07/12 09:06:43;;;;;;;4.22;3.83;;;28.80;1.00;;;;;;5051583;28;20323;-84
2022/07/12 09:09:10;;;;;;;3.95;3.40;;;28.60;90.90;;;;;;5050994;28;20569;-87
2022/07/12 09:11:39;;;;;;;5.10;3.80;;;28.80;30.60;;;;;;5041307;28;20731;-85
2022/07/12 09:14:07;;;;;;;4.18;2.78;;;28.80;1.00;;;;;;5037556;28;20207;-85
2022/07/12 09:16:35;;;;;;;5.30;4.07;;;29.10;1.00;;;;;;5040680;28;20209;-86
2022/07/12 09:19:21;;;;;;;5.10;2.78;;;29.50;1.00;;;;;;5041849;28;20201;-86
2022/07/12 09:21:51;;;;;;;2.55;2.35;;;29.90;1.00;;;;;;5050274;28;20256;-84
2022/07/12 09:24:18;;;;;;;2.88;2.58;;;30.30;1.00;;;;;;5033214;28;20516;-85
2022/07/12 09:26:46;;;;;;;3.97;3.00;;;30.70;1.00;;;;;;5032786;28;20210;-81
2022/07/12 09:29:14;;;;;;;4.15;3.35;;;31.10;1.00;;;;;;5031837;28;20202;-84
2022/07/12 09:36:06;;;;;;;2.42;1.98;;;31.20;99.90;;;;;;5044232;28;20312;-84
2022/07/12 09:37:15;;;;;;;3.58;3.28;;;31.30;99.90;;;;;;5051926;28;20226;-84
2022/07/12 09:39:42;;;;;;;3.60;3.30;;;31.30;1.00;;;;;;5052998;28;20190;-86
2022/07/12 09:42:11;;;;;;;3.55;3.03;;;31.10;99.90;;;;;;5052863;28;20204;-83
2022/07/12 09:44:38;;;;;;;3.38;3.08;;;31.00;99.90;;;;;;5051603;28;20233;-83
2022/07/12 09:47:09;;;;;;;3.60;3.13;;;31.10;1.00;;;;;;5052439;28;20700;-85
2022/07/12 09:49:39;;;;;;;3.58;3.15;;;31.30;99.90;;;;;;5052346;28;20610;-86
2022/07/12 09:52:07;;;;;;;4.25;3.47;;;31.50;25.60;;;;;;5050843;28;20206;-84
2022/07/12 09:54:40;;;;;;;3.55;3.03;;;31.40;99.90;;;;;;5052458;28;20205;-84
2022/07/12 09:57:17;;;;;;;5.78;3.75;;;31.60;99.90;;;;;;5051097;28;20534;-85
2022/07/12 09:59:45;;;;;;;3.75;3.05;;;31.70;1.00;;;;;;5052702;28;20221;-84
2022/07/12 10:02:15;;;;;;;6.53;3.97;;;31.60;1.00;;;;;;5052263;28;20500;-83
2022/07/12 10:04:43;;;;;;;3.40;3.10;;;31.60;1.00;;;;;;5050674;28;20574;-85
2022/07/12 10:07:13;;;;;;;3.88;3.45;;;31.70;1.00;;;;;;5047988;28;20202;-85
2022/07/12 10:09:41;;;;;;;7.82;4.57;;;31.90;1.00;;;;;;5051849;28;20268;-86
2022/07/12 10:12:09;;;;;;;5.90;4.18;;;32.00;1.00;;;;;;5050140;28;20200;-82
2022/07/12 10:14:37;;;;;;;4.43;4.03;;;31.90;1.00;;;;;;5052943;28;20202;-86
2022/07/12 10:17:08;;;;;;;7.75;3.67;;;31.90;1.00;;;;;;5052190;28;20209;-86
2022/07/12 10:19:36;;;;;;;4.88;4.38;;;32.00;1.00;;;;;;5052441;28;20569;-86
2022/07/12 10:22:06;;;;;;;4.97;3.35;;;32.10;1.00;;;;;;5055454;28;20231;-86
2022/07/12 10:24:55;;;;;;;4.68;2.75;;;32.20;1.00;;;;;;5036961;28;20236;-86
2022/07/12 10:27:33;;;;;;;6.60;4.95;;;32.40;1.00;;;;;;5035339;28;20199;-85
2022/07/12 10:30:18;;;;;;;5.13;3.22;;;32.50;1.00;;;;;;5052400;28;20198;-86
2022/07/12 10:32:48;;;;;;;4.97;4.50;;;32.50;1.00;;;;;;5050951;28;20199;-86
2022/07/12 10:35:19;;;;;;;5.28;4.47;;;32.40;1.00;;;;;;5046995;28;20225;-83
2022/07/12 10:38:17;;;;;;;5.57;3.30;;;32.30;1.00;;;;;;5053495;28;20214;-84
2022/07/12 10:40:45;;;;;;;5.20;4.47;;;32.40;1.00;;;;;;5053755;28;20202;-87
2022/07/12 10:44:04;;;;;;;8.18;5.72;;;32.60;1.00;;;;;;5048290;28;20257;-84
2022/07/12 10:46:25;;;;;;;7.03;4.32;;;32.70;1.00;;;;;;5054633;28;20194;-85
2022/07/12 10:48:52;;;;;;;8.02;4.85;;;32.70;1.00;;;;;;5048159;28;20226;-85
2022/07/12 10:51:20;;;;;;;9.45;6.97;;;32.80;1.00;;;;;;5035042;28;20202;-85
2022/07/12 10:53:50;;;;;;;5.35;4.60;;;32.70;1.00;;;;;;5033821;28;20198;-87
2022/07/12 10:56:20;;;;;;;4.43;4.03;;;32.70;1.00;;;;;;5043911;28;20716;-85
2022/07/12 10:58:49;;;;;;;7.60;5.65;;;32.80;1.00;;;;;;5053667;28;20640;-85
2022/07/12 11:01:18;;;;;;;6.80;6.10;;;32.70;1.00;;;;;;5047397;28;20355;-87
2022/07/12 11:03:47;;;;;;;8.05;5.60;;;32.80;1.00;;;;;;5054756;28;20299;-86
2022/07/12 11:06:16;;;;;;;9.98;7.68;;;32.80;1.00;;;;;;5054340;28;20205;-84
2022/07/12 11:08:55;;;;;;;13.20;9.60;;;32.70;1.00;;;;;;5054837;28;20693;-85
2022/07/12 11:11:24;;;;;;;15.23;10.52;;;32.50;1.00;;;;;;5053111;28;20197;-85
2022/07/12 11:13:51;;;;;;;12.13;9.20;;;32.40;1.00;;;;;;5053959;28;20198;-84
2022/07/12 11:16:18;;;;;;;10.00;7.50;;;32.10;1.00;;;;;;5053781;28;20260;-84
2022/07/12 11:18:46;;;;;;;6.78;5.68;;;32.10;1.00;;;;;;5052766;28;20208;-84
2022/07/12 11:21:14;;;;;;;6.22;5.18;;;32.10;1.00;;;;;;5053518;28;20743;-82
2022/07/12 11:23:44;;;;;;;7.70;7.00;;;32.10;1.00;;;;;;5054584;28;20222;-83
2022/07/12 11:26:14;;;;;;;6.25;5.63;;;32.30;1.00;;;;;;5055392;28;20209;-85
2022/07/12 11:28:42;;;;;;;6.35;4.72;;;32.30;1.00;;;;;;5051602;28;20288;-84
2022/07/12 11:31:11;;;;;;;6.78;6.03;;;32.40;1.00;;;;;;5053981;28;20210;-86
2022/07/12 11:33:39;;;;;;;8.05;7.13;;;32.40;1.00;;;;;;5054709;28;20284;-85
2022/07/12 11:36:08;;;;;;;8.02;6.70;;;32.50;1.00;;;;;;5059852;28;20590;-86
2022/07/12 11:38:36;;;;;;;9.85;7.80;;;32.60;1.00;;;;;;5057634;28;20206;-85
2022/07/12 11:41:05;;;;;;;10.50;6.07;;;32.70;1.00;;;;;;5055314;28;20469;-84
2022/07/12 11:43:35;;;;;;;7.22;5.38;;;32.80;1.00;;;;;;5054977;28;20268;-85
2022/07/12 11:46:03;;;;;;;8.60;6.88;;;32.80;1.00;;;;;;5056022;28;20198;-84
2022/07/12 11:48:32;;;;;;;10.23;8.55;;;33.00;1.00;;;;;;5055812;28;20226;-85
2022/07/12 11:51:03;;;;;;;8.95;8.07;;;33.10;1.00;;;;;;5053854;28;20208;-84
2022/07/12 11:53:31;;;;;;;6.10;4.97;;;33.10;1.00;;;;;;5054035;28;20198;-86
2022/07/12 11:56:01;;;;;;;7.03;6.43;;;33.10;1.00;;;;;;5051936;28;20204;-85
2022/07/12 11:58:29;;;;;;;7.43;6.13;;;33.10;1.00;;;;;;5054326;28;20213;-84
2022/07/12 12:00:58;;;;;;;8.55;6.50;;;33.10;1.00;;;;;;5054044;28;20680;-85
2022/07/12 12:03:26;;;;;;;5.93;5.25;;;33.00;1.00;;;;;;5053459;28;20221;-84
2022/07/12 12:05:54;;;;;;;6.55;5.93;;;33.00;1.00;;;;;;5053146;28;20233;-84
2022/07/12 12:08:22;;;;;;;9.00;7.65;;;33.10;1.00;;;;;;5053724;28;20212;-85
2022/07/12 12:10:57;;;;;;;8.00;7.18;;;33.00;1.00;;;;;;5052716;28;20209;-87
2022/07/12 12:13:26;;;;;;;6.68;5.40;;;32.70;1.00;;;;;;5054293;28;20193;-85
2022/07/12 12:15:54;;;;;;;7.82;6.93;;;32.50;1.00;;;;;;5053507;28;20248;-85
2022/07/12 12:18:34;;;;;;;6.25;4.60;;;32.30;1.00;;;;;;5052917;28;20662;-84
2022/07/12 12:21:02;;;;;;;7.85;5.95;;;32.10;1.00;;;;;;5052024;28;20213;-85
2022/07/12 12:23:29;;;;;;;6.90;5.38;;;32.10;1.00;;;;;;5053138;28;20297;-83
2022/07/12 12:26:16;;;;;;;9.73;7.97;;;31.80;1.00;;;;;;5053152;28;20201;-83
2022/07/12 12:28:48;;;;;;;8.77;7.88;;;31.60;1.00;;;;;;5053443;28;20193;-84
2022/07/12 12:31:16;;;;;;;8.40;7.00;;;31.40;1.00;;;;;;5052628;28;20541;-85
2022/07/12 12:33:46;;;;;;;10.70;8.90;;;31.10;1.00;;;;;;5053111;28;20225;-85
2022/07/12 12:36:22;;;;;;;8.57;7.70;;;30.80;1.00;;;;;;5052971;28;20228;-86
2022/07/12 12:38:50;;;;;;;8.40;6.80;;;30.80;1.00;;;;;;5053274;28;20198;-86
2022/07/12 12:41:17;;;;;;;8.45;6.10;;;30.60;1.00;;;;;;5053636;28;20252;-86
2022/07/12 12:43:44;;;;;;;9.60;8.60;;;30.30;11.50;;;;;;5052499;28;20305;-87
2022/07/12 12:46:11;;;;;;;8.55;7.65;;;30.00;99.90;;;;;;5053209;28;20198;-86
2022/07/12 12:48:48;;;;;;;8.38;7.45;;;29.80;99.90;;;;;;5052796;28;20241;-88
2022/07/12 12:51:16;;;;;;;7.68;6.97;;;29.60;1.00;;;;;;5053791;28;20221;-83
2022/07/12 12:53:43;;;;;;;9.45;6.57;;;29.40;1.00;;;;;;5052716;28;20214;-86
2022/07/12 12:56:11;;;;;;;9.60;8.13;;;29.40;99.90;;;;;;5053918;28;20292;-82
2022/07/12 12:58:39;;;;;;;9.52;7.80;;;29.30;1.00;;;;;;5053015;28;20202;-83
2022/07/12 13:01:07;;;;;;;10.55;7.35;;;29.20;99.90;;;;;;5049989;28;20285;-81
2022/07/12 13:03:34;;;;;;;10.15;6.70;;;29.30;14.60;;;;;;5033356;28;20587;-83
2022/07/12 13:06:04;;;;;;;6.75;6.03;;;29.40;1.00;;;;;;5033061;28;20252;-83